.
WxDataArchive / Data Records for 2013-08-01
2013-07-31 August 2013 2013-08-02

Data Records for Thursday, 01 August 2013

Time	Temp	Chill	HIndex	Humid	Dewpt	 Wind 	HiWind	WindDir	Rain 	Barom 
-----	----	-----	------	-----	-----	------	------	-------	-----	----- 
00:00	67.8	67.8	67.8	91	65.1	1	3	270	0.00	29.921 
00:05	67.8	67.8	67.8	91	65.1	1	3	270	0.00	29.921 
00:10	67.8	67.8	67.8	91	65.1	0	1	270	0.00	29.921 
00:15	67.6	67.6	67.6	91	64.9	0	1	270	0.00	29.915 
00:20	67.6	67.6	67.6	91	64.9	0	0	---	0.00	29.915 
00:25	67.6	67.6	67.6	91	64.9	0	0	---	0.00	29.915 
00:30	67.6	67.6	67.6	91	64.9	0	1	270	0.00	29.912 
00:35	67.6	67.6	67.6	91	64.9	0	1	270	0.00	29.912 
00:40	67.6	67.6	67.6	91	64.9	0	1	270	0.00	29.912 
00:45	67.6	67.6	67.6	91	64.9	0	1	270	0.00	29.908 
00:50	67.6	67.6	67.6	91	64.9	0	1	270	0.00	29.908 
00:55	67.6	67.6	67.6	91	64.9	0	1	270	0.00	29.908 
01:00	67.6	67.6	67.6	91	64.9	0	1	270	0.00	29.910 
01:05	67.4	67.4	67.4	91	64.7	0	1	270	0.00	29.910 
01:10	67.4	67.4	67.4	91	64.7	0	1	270	0.00	29.910 
01:15	67.4	67.4	67.4	91	64.7	0	1	270	0.00	29.910 
01:20	67.3	67.3	67.3	91	64.6	1	3	270	0.00	29.910 
01:25	67.3	67.3	67.3	91	64.6	1	4	270	0.00	29.910 
01:30	67.1	67.1	67.1	91	64.4	1	4	315	0.00	29.921 
01:35	66.9	66.9	66.9	91	64.2	1	3	315	0.00	29.921 
01:40	66.9	66.9	66.9	91	64.2	0	2	315	0.00	29.921 
01:45	66.9	66.9	66.9	91	64.2	1	3	315	0.00	29.909 
01:50	66.8	66.8	66.8	91	64.1	1	3	315	0.00	29.909 
01:55	66.8	66.8	66.8	91	64.1	2	4	270	0.00	29.909 
02:00	66.6	66.6	66.6	91	63.9	1	4	292	0.00	29.908 
02:05	66.6	66.6	66.6	91	63.9	1	4	292	0.00	29.908 
02:10	66.4	66.4	66.4	91	63.7	1	3	292	0.00	29.908 
02:15	66.4	66.4	66.4	91	63.7	1	2	292	0.00	29.908 
02:20	66.3	66.3	66.3	91	63.6	1	3	292	0.00	29.908 
02:25	66.1	66.1	66.1	90	63.1	1	3	292	0.00	29.908 
02:30	66.0	66.0	66.0	91	63.3	1	2	292	0.00	29.905 
02:35	66.0	66.0	66.0	91	63.3	0	3	292	0.00	29.905 
02:40	65.8	65.8	65.8	91	63.1	0	2	292	0.00	29.905 
02:45	65.8	65.8	65.8	91	63.1	2	5	270	0.00	29.903 
02:50	65.8	65.8	65.8	91	63.1	1	4	270	0.00	29.903 
02:55	65.6	65.6	65.6	91	62.9	1	4	270	0.00	29.903 
03:00	65.6	65.6	65.6	90	62.6	1	3	270	0.00	29.901 
03:05	65.6	65.6	65.6	90	62.6	1	3	270	0.00	29.901 
03:10	65.5	65.5	65.5	90	62.5	1	3	270	0.00	29.901 
03:15	65.3	65.3	65.3	90	62.3	0	2	270	0.00	29.903 
03:20	65.3	65.3	65.3	90	62.3	1	3	270	0.00	29.903 
03:25	65.2	65.2	65.2	90	62.2	0	1	270	0.00	29.903 
03:30	65.0	65.0	65.0	90	62.0	0	2	270	0.00	29.907 
03:35	65.0	65.0	65.0	91	62.3	1	3	270	0.00	29.907 
03:40	65.0	65.0	65.0	91	62.3	2	5	338	0.00	29.907 
03:45	65.0	65.0	65.0	91	62.3	2	4	270	0.00	29.913 
03:50	64.8	64.8	64.8	91	62.1	1	2	270	0.00	29.913 
03:55	64.8	64.8	64.8	91	62.1	1	3	270	0.00	29.913 
04:00	64.7	64.7	64.7	91	62.0	1	4	270	0.00	29.913 
04:05	64.5	64.5	64.5	91	61.8	1	3	270	0.00	29.913 
04:10	64.5	64.5	64.5	91	61.8	2	4	270	0.00	29.913 
04:15	64.3	64.3	64.3	91	61.6	1	3	270	0.00	29.911 
04:20	64.2	64.2	64.2	91	61.5	0	3	270	0.00	29.911 
04:25	64.2	64.2	64.2	91	61.5	0	1	270	0.00	29.911 
04:30	64.0	64.0	64.0	91	61.3	0	2	270	0.00	29.912 
04:35	64.0	64.0	64.0	91	61.3	0	3	270	0.00	29.912 
04:40	63.9	63.9	63.9	91	61.2	0	2	270	0.00	29.912 
04:45	63.9	63.9	63.9	91	61.2	0	2	270	0.00	29.912 
04:50	63.7	63.7	63.7	91	61.0	1	3	270	0.00	29.912 
04:55	63.5	63.5	63.5	91	60.8	0	4	292	0.00	29.912 
05:00	63.5	63.5	63.5	92	61.1	1	4	292	0.00	29.910 
05:05	63.5	63.5	63.5	92	61.1	2	4	292	0.00	29.910 
05:10	63.7	63.7	63.7	92	61.3	2	4	292	0.00	29.910 
05:15	63.7	63.7	63.7	92	61.3	0	4	292	0.00	29.912 
05:20	63.7	63.7	63.7	92	61.3	0	1	292	0.00	29.912 
05:25	63.7	63.7	63.7	92	61.3	0	1	292	0.00	29.912 
05:30	63.7	63.7	63.7	92	61.3	1	4	292	0.00	29.912 
05:35	63.5	63.5	63.5	92	61.1	0	2	292	0.00	29.912 
05:40	63.5	63.5	63.5	92	61.1	0	4	292	0.00	29.912 
05:45	63.5	63.5	63.5	92	61.1	0	3	292	0.00	29.913 
05:50	63.5	63.5	63.5	92	61.1	0	1	292	0.00	29.913 
05:55	63.5	63.5	63.5	93	61.4	0	1	292	0.00	29.913 
06:00	63.5	63.5	63.5	93	61.4	0	2	292	0.00	29.922 
06:05	63.7	63.7	63.7	93	61.6	0	1	292	0.00	29.922 
06:10	63.7	63.7	63.7	93	61.6	0	2	292	0.00	29.922 
06:15	63.7	63.7	63.7	93	61.6	0	3	292	0.00	29.926 
06:20	63.7	63.7	63.7	93	61.6	1	3	292	0.00	29.926 
06:25	63.9	63.9	63.9	93	61.8	0	2	292	0.00	29.926 
06:30	63.9	63.9	63.9	93	61.8	0	1	292	0.00	29.928 
06:35	63.9	63.9	63.9	93	61.8	0	2	292	0.00	29.928 
06:40	63.9	63.9	63.9	93	61.8	0	2	292	0.00	29.928 
06:45	63.9	63.9	63.9	93	61.8	0	2	292	0.00	29.929 
06:50	63.9	63.9	63.9	93	61.8	0	1	292	0.00	29.929 
06:55	63.9	63.9	63.9	93	61.8	0	1	292	0.00	29.929 
07:00	63.9	63.9	63.9	93	61.8	0	1	292	0.00	29.928 
07:05	63.9	63.9	63.9	93	61.8	0	2	292	0.00	29.928 
07:10	63.9	63.9	63.9	93	61.8	0	1	292	0.00	29.928 
07:15	63.9	63.9	63.9	93	61.8	0	1	292	0.00	29.933 
07:20	63.9	63.9	63.9	93	61.8	0	1	292	0.00	29.933 
07:25	63.9	63.9	63.9	93	61.8	1	3	292	0.00	29.933 
07:30	63.9	63.9	63.9	93	61.8	1	2	292	0.00	29.943 
07:35	63.9	63.9	63.9	92	61.5	0	2	292	0.00	29.943 
07:40	63.9	63.9	63.9	92	61.5	0	3	292	0.00	29.943 
07:45	63.9	63.9	63.9	92	61.5	1	3	292	0.00	29.945 
07:50	64.0	64.0	64.0	92	61.6	0	3	292	0.00	29.945 
07:55	64.0	64.0	64.0	92	61.6	0	2	292	0.00	29.945 
08:00	63.9	63.9	63.9	91	61.2	1	2	292	0.00	29.945 
08:05	63.9	63.9	63.9	91	61.2	1	3	292	0.00	29.945 
08:10	63.9	63.9	63.9	91	61.2	0	2	292	0.00	29.945 
08:15	64.0	64.0	64.0	90	61.0	0	1	292	0.00	29.947 
08:20	64.2	64.2	64.2	90	61.2	0	4	292	0.00	29.947 
08:25	64.3	64.3	64.3	90	61.3	0	1	292	0.00	29.947 
08:30	64.5	64.5	64.5	90	61.5	0	2	292	0.00	29.948 
08:35	64.5	64.5	64.5	89	61.2	1	3	292	0.00	29.948 
08:40	64.3	64.3	64.3	89	61.0	0	2	292	0.00	29.948 
08:45	64.3	64.3	64.3	89	61.0	0	2	292	0.00	29.951 
08:50	64.3	64.3	64.3	89	61.0	0	1	292	0.00	29.951 
08:55	64.8	64.8	64.8	88	61.2	0	2	292	0.00	29.951 
09:00	65.3	65.3	65.3	88	61.6	0	3	292	0.00	29.948 
09:05	65.8	65.8	65.8	87	61.8	1	2	292	0.00	29.948 
09:10	66.0	66.0	66.0	85	61.4	1	2	292	0.00	29.948 
09:15	66.4	66.4	66.4	84	61.4	1	3	292	0.00	29.957 
09:20	66.9	66.9	66.9	83	61.6	1	4	292	0.00	29.957 
09:25	67.6	67.6	67.6	81	61.6	1	2	292	0.00	29.957 
09:30	67.9	67.9	67.9	81	61.8	1	2	292	0.00	29.956 
09:35	68.4	68.4	68.4	80	62.0	0	2	292	0.00	29.956 
09:40	68.9	68.9	68.9	78	61.7	1	2	292	0.00	29.956 
09:45	69.3	69.3	69.3	78	62.1	1	3	292	0.00	29.955 
09:50	69.4	69.4	69.4	76	61.5	1	2	292	0.00	29.955 
09:55	69.8	69.8	69.8	75	61.5	1	2	292	0.00	29.955 
10:00	70.1	70.1	70.1	75	61.8	1	3	292	0.00	29.955 
10:05	70.8	70.8	70.8	75	62.5	1	3	292	0.00	29.955 
10:10	71.1	71.1	71.1	72	61.6	1	5	315	0.00	29.955 
10:15	71.5	71.5	71.5	72	62.0	1	3	315	0.00	29.951 
10:20	72.0	72.0	72.0	72	62.5	0	2	315	0.00	29.951 
10:25	72.1	72.1	72.1	70	61.8	1	4	315	0.00	29.951 
10:30	72.5	72.5	72.5	71	62.5	1	4	315	0.00	29.947 
10:35	72.7	72.7	72.7	69	61.9	1	4	315	0.00	29.947 
10:40	72.8	72.8	72.8	69	62.0	0	2	315	0.00	29.947 
10:45	73.0	73.0	73.0	69	62.2	1	2	315	0.00	29.937 
10:50	73.3	73.3	73.3	68	62.1	1	3	315	0.00	29.937 
10:55	73.5	73.5	73.5	69	62.7	1	2	315	0.00	29.937 
11:00	74.0	74.0	74.0	68	62.8	1	3	315	0.00	29.936 
11:05	74.0	74.0	74.0	67	62.3	1	4	292	0.00	29.936 
11:10	74.2	74.2	74.2	68	62.9	1	4	292	0.00	29.936 
11:15	74.4	74.4	74.4	66	62.3	2	4	315	0.00	29.937 
11:20	74.6	74.6	74.6	67	62.9	1	3	270	0.00	29.937 
11:25	74.9	74.9	74.9	66	62.8	1	4	270	0.00	29.937 
11:30	74.7	74.7	74.7	66	62.6	1	3	270	0.00	29.937 
11:35	75.3	75.3	77.2	66	63.1	1	3	270	0.00	29.937 
11:40	76.0	76.0	77.9	63	62.5	2	4	270	0.00	29.937 
11:45	75.4	75.4	77.4	64	62.4	2	5	315	0.00	29.939 
11:50	75.4	75.4	77.4	64	62.4	1	4	315	0.00	29.939 
11:55	75.4	75.4	77.6	61	61.0	2	5	315	0.00	29.939 
12:00	75.3	75.3	77.5	62	61.4	1	4	315	0.00	29.939 
12:05	75.6	75.6	77.7	62	61.6	1	4	315	0.00	29.939 
12:10	76.1	76.1	78.1	59	60.7	2	4	270	0.00	29.939 
12:15	76.1	76.1	78.0	62	62.1	1	3	292	0.00	29.940 
12:20	76.7	76.7	78.5	60	61.7	1	4	315	0.00	29.940 
12:25	76.8	76.8	78.6	57	60.4	2	5	270	0.00	29.940 
12:30	76.8	76.8	78.6	58	60.9	2	5	292	0.00	29.937 
12:35	77.2	77.2	78.9	60	62.2	2	4	270	0.00	29.937 
12:40	77.7	77.7	79.3	56	60.7	2	6	270	0.00	29.937 
12:45	77.7	77.7	79.3	58	61.7	1	4	292	0.00	29.932 
12:50	77.6	77.6	79.2	58	61.6	1	3	292	0.00	29.932 
12:55	77.6	77.6	79.2	57	61.1	2	4	292	0.00	29.932 
13:00	77.9	77.9	79.5	58	61.9	1	3	292	0.00	29.928 
13:05	78.6	78.6	80.1	57	62.1	1	3	292	0.00	29.928 
13:10	78.8	78.8	80.0	53	60.2	1	3	292	0.00	29.928 
13:15	78.8	78.8	80.0	53	60.2	1	3	292	0.00	29.922 
13:20	78.1	78.1	79.4	52	59.0	1	3	292	0.00	29.922 
13:25	77.2	77.2	78.8	53	58.7	1	4	292	0.00	29.922 
13:30	77.0	77.0	78.7	55	59.6	1	4	292	0.00	29.919 
13:35	76.8	76.8	78.6	56	59.9	1	3	292	0.00	29.919 
13:40	76.3	76.3	78.3	56	59.4	2	4	292	0.00	29.919 
13:45	75.8	75.8	77.9	58	59.9	1	3	292	0.00	29.926 
13:50	75.1	75.1	77.2	64	62.1	1	4	292	0.00	29.926 
13:55	73.5	73.5	73.5	71	63.5	1	3	292	0.02	29.926 
14:00	71.3	71.3	71.3	74	62.6	1	3	292	0.01	29.939 
14:05	69.6	69.6	69.6	78	62.4	1	4	292	0.01	29.939 
14:10	67.9	67.9	67.9	81	61.8	1	4	315	0.04	29.939 
14:15	67.3	67.3	67.3	84	62.3	0	1	315	0.00	29.944 
14:20	67.8	67.8	67.8	88	64.1	0	1	315	0.00	29.944 
14:25	68.4	68.4	68.4	89	65.0	0	1	315	0.00	29.944 
14:30	68.9	68.9	68.9	90	65.8	0	1	315	0.00	29.928 
14:35	69.1	69.1	69.1	90	66.0	0	1	315	0.00	29.928 
14:40	68.8	68.8	68.8	88	65.1	1	3	315	0.00	29.928 
14:45	68.8	68.8	68.8	88	65.1	0	2	315	0.00	29.927 
14:50	69.4	69.4	69.4	89	66.0	0	2	315	0.00	29.927 
14:55	70.8	70.8	70.8	89	67.4	0	1	315	0.00	29.927 
15:00	71.3	71.3	71.3	86	66.9	0	2	315	0.00	29.926 
15:05	71.8	71.8	71.8	83	66.3	1	3	315	0.00	29.926 
15:10	72.3	72.3	72.3	80	65.8	0	2	315	0.00	29.926 
15:15	73.3	73.3	73.3	77	65.6	1	2	315	0.00	29.922 
15:20	74.0	74.0	74.0	73	64.8	1	4	315	0.00	29.922 
15:25	74.6	74.6	74.6	68	63.3	2	5	338	0.00	29.922 
15:30	75.3	75.3	77.4	63	61.8	2	4	270	0.00	29.918 
15:35	76.0	76.0	77.9	63	62.5	2	5	270	0.00	29.918 
15:40	76.3	76.3	78.2	64	63.2	2	4	292	0.00	29.918 
15:45	76.5	76.5	78.3	63	62.9	2	5	292	0.00	29.914 
15:50	76.7	76.7	78.5	63	63.1	1	3	315	0.00	29.914 
15:55	76.7	76.7	78.5	62	62.7	1	2	315	0.00	29.914 
16:00	76.3	76.3	78.2	61	61.8	1	3	315	0.00	29.908 
16:05	76.5	76.5	78.4	58	60.6	2	4	292	0.00	29.908 
16:10	77.2	77.2	78.9	57	60.8	3	6	315	0.00	29.908 
16:15	77.4	77.4	79.0	56	60.5	3	7	315	0.00	29.906 
16:20	77.6	77.6	79.1	53	59.1	3	6	338	0.00	29.906 
16:25	78.3	78.3	79.6	53	59.7	2	6	292	0.00	29.906 
16:30	78.1	78.1	79.4	51	58.5	2	7	315	0.00	29.905 
16:35	78.1	78.1	79.1	46	55.6	3	9	315	0.00	29.905 
16:40	78.5	78.5	79.2	43	54.1	3	6	270	0.00	29.905 
16:45	79.0	79.0	79.6	44	55.2	3	5	270	0.00	29.906 
16:50	79.8	79.8	80.0	43	55.3	3	7	315	0.00	29.906 
16:55	79.8	79.8	79.8	40	53.3	3	6	292	0.00	29.906 
17:00	79.8	79.8	79.6	38	51.9	3	6	292	0.00	29.904 
17:05	79.8	79.8	79.6	38	51.9	3	7	315	0.00	29.904 
17:10	79.8	79.8	79.6	38	51.9	4	7	270	0.00	29.904 
17:15	79.6	79.6	79.5	38	51.7	4	10	270	0.00	29.905 
17:20	79.8	79.8	79.5	36	50.4	4	7	270	0.00	29.905 
17:25	79.8	79.8	79.6	38	51.9	3	7	270	0.00	29.905 
17:30	79.6	79.6	79.4	37	51.0	4	10	270	0.00	29.903 
17:35	79.4	79.4	79.4	38	51.6	4	9	292	0.00	29.903 
17:40	79.2	79.2	79.2	37	50.7	3	7	315	0.00	29.903 
17:45	79.4	79.4	79.5	39	52.3	4	7	270	0.00	29.907 
17:50	78.8	78.8	79.0	38	51.0	3	5	292	0.00	29.907 
17:55	79.0	79.0	79.2	38	51.2	4	6	315	0.00	29.907 
18:00	79.2	79.2	79.3	39	52.1	2	9	0	0.00	29.907 
18:05	79.6	79.6	79.7	40	53.1	2	5	338	0.00	29.907 
18:10	79.6	79.6	79.5	38	51.7	2	4	292	0.00	29.907 
18:15	79.4	79.4	79.4	38	51.6	3	6	292	0.00	29.906 
18:20	78.8	78.8	79.0	37	50.3	4	7	270	0.00	29.906 
18:25	78.5	78.5	78.9	39	51.5	4	8	270	0.00	29.906 
18:30	78.3	78.3	78.9	41	52.6	3	6	270	0.00	29.907 
18:35	78.3	78.3	78.9	41	52.6	2	6	292	0.00	29.907 
18:40	78.1	78.1	78.8	41	52.5	2	8	270	0.00	29.907 
18:45	77.7	77.7	78.6	40	51.4	3	5	292	0.00	29.907 
18:50	77.4	77.4	78.6	43	53.1	4	6	270	0.00	29.907 
18:55	77.2	77.2	78.4	41	51.7	3	7	270	0.00	29.907 
19:00	77.2	77.2	78.4	41	51.7	2	6	338	0.00	29.909 
19:05	77.0	77.0	78.2	40	50.8	3	7	292	0.00	29.909 
19:10	77.0	77.0	78.2	40	50.8	2	6	315	0.00	29.909 
19:15	76.8	76.8	78.2	41	51.3	1	3	315	0.00	29.910 
19:20	76.7	76.7	78.1	40	50.5	2	6	315	0.00	29.910 
19:25	76.7	76.7	78.1	41	51.2	1	3	292	0.00	29.910 
19:30	76.5	76.5	78.1	41	51.0	2	5	315	0.00	29.909 
19:35	76.5	76.5	78.1	41	51.0	1	5	315	0.00	29.909 
19:40	76.3	76.3	78.0	42	51.5	1	3	315	0.00	29.909 
19:45	76.1	76.1	77.9	42	51.3	1	3	315	0.00	29.908 
19:50	76.0	76.0	77.9	42	51.2	1	3	315	0.00	29.908 
19:55	75.8	75.8	77.8	42	51.1	1	3	315	0.00	29.908 
20:00	75.6	75.6	77.7	42	50.9	1	4	315	0.00	29.909 
20:05	75.3	75.3	77.6	42	50.6	1	4	315	0.00	29.909 
20:10	75.1	75.1	77.6	43	51.1	1	3	315	0.00	29.909 
20:15	74.9	74.9	74.9	44	51.5	0	1	315	0.00	29.911 
20:20	74.6	74.6	74.6	45	51.8	0	3	315	0.00	29.911 
20:25	74.0	74.0	74.0	46	51.9	0	2	315	0.00	29.911 
20:30	73.7	73.7	73.7	47	52.2	1	4	315	0.00	29.911 
20:35	73.3	73.3	73.3	48	52.4	0	3	315	0.00	29.911 
20:40	73.0	73.0	73.0	49	52.7	0	1	315	0.00	29.911 
20:45	72.7	72.7	72.7	50	53.0	0	0	---	0.00	29.909 
20:50	72.1	72.1	72.1	50	52.4	0	1	315	0.00	29.909 
20:55	71.8	71.8	71.8	51	52.7	0	0	---	0.00	29.909 
21:00	71.5	71.5	71.5	52	52.9	0	1	315	0.00	29.914 
21:05	71.3	71.3	71.3	52	52.8	0	0	---	0.00	29.914 
21:10	70.9	70.9	70.9	53	52.9	0	0	---	0.00	29.914 
21:15	70.6	70.6	70.6	53	52.6	0	0	---	0.00	29.921 
21:20	70.4	70.4	70.4	54	52.9	0	1	315	0.00	29.921 
21:25	70.1	70.1	70.1	54	52.7	0	0	---	0.00	29.921 
21:30	69.9	69.9	69.9	54	52.5	0	0	---	0.00	29.925 
21:35	69.6	69.6	69.6	55	52.7	0	0	---	0.00	29.925 
21:40	69.1	69.1	69.1	57	53.2	0	0	---	0.00	29.925 
21:45	68.6	68.6	68.6	58	53.2	0	0	---	0.00	29.931 
21:50	68.3	68.3	68.3	58	52.9	0	0	---	0.00	29.931 
21:55	67.9	67.9	67.9	59	53.0	0	0	---	0.00	29.931 
22:00	67.6	67.6	67.6	59	52.8	0	0	---	0.00	29.938 
22:05	67.3	67.3	67.3	61	53.4	0	0	---	0.00	29.938 
22:10	66.9	66.9	66.9	62	53.4	0	0	---	0.00	29.938 
22:15	66.6	66.6	66.6	62	53.2	0	0	---	0.00	29.940 
22:20	66.3	66.3	66.3	63	53.3	0	0	---	0.00	29.940 
22:25	66.0	66.0	66.0	64	53.5	0	0	---	0.00	29.940 
22:30	65.8	65.8	65.8	65	53.7	0	0	---	0.00	29.940 
22:35	65.5	65.5	65.5	66	53.8	0	0	---	0.00	29.940 
22:40	65.2	65.2	65.2	66	53.5	0	0	---	0.00	29.940 
22:45	65.0	65.0	65.0	66	53.4	0	0	---	0.00	29.940 
22:50	64.7	64.7	64.7	67	53.5	0	0	---	0.00	29.940 
22:55	64.3	64.3	64.3	67	53.1	0	0	---	0.00	29.940 
23:00	64.0	64.0	64.0	69	53.6	0	0	---	0.00	29.939 
23:05	63.9	63.9	63.9	70	53.9	0	0	---	0.00	29.939 
23:10	63.5	63.5	63.5	71	53.9	0	0	---	0.00	29.939 
23:15	63.4	63.4	63.4	72	54.2	0	0	---	0.00	29.940 
23:20	63.1	63.1	63.1	73	54.3	0	0	---	0.00	29.940 
23:25	62.7	62.7	62.7	73	53.9	0	0	---	0.00	29.940 
23:30	62.6	62.6	62.6	74	54.2	0	0	---	0.00	29.942 
23:35	62.3	62.3	62.3	74	53.9	0	0	---	0.00	29.942 
23:40	62.1	62.1	62.1	75	54.1	0	0	---	0.00	29.942 
23:45	62.0	62.0	62.0	75	54.0	0	0	---	0.00	29.944 
23:50	61.8	61.8	61.8	76	54.1	0	0	---	0.00	29.944 
23:55	61.6	61.6	61.6	77	54.3	0	0	---	0.00	29.944 

CoCoRaHS
IN-AL-39
A2 Web Hosting
Creative Commons License
GoDaddy
search engine by freefind advanced

loaded 2018-11-18 11:54:30 • last modified 2010-11-18 10:43:29
Privacy PolicyDisclaimer
• wx.awcolley.com is powered by PmWiki v.2002016 •
• all content (unless otherwise noted) © 2018 A W Colley